Time;durP1;ratioP1;P1;durP2;ratioP2;P2;SDS_P1;SDS_P2;PMS_P1;PMS_P2;Temp;Humidity;BMP_temperature;BMP_pressure;BME280_temperature;BME280_humidity;BME280_pressure;Samples;Min_cycle;Max_cycle;Signal;HPM_P1;HPM_P2
2022/04/22 00:00:30;;;;;;;103.72;55.50;;;;;;;8.17;100.00;99011.63;4834349;29;20493;-82
2022/04/22 00:02:56;;;;;;;101.32;55.58;;;;;;;7.97;100.00;99001.69;4834267;29;20067;-83
2022/04/22 00:05:22;;;;;;;109.90;55.90;;;;;;;8.43;100.00;99006.75;4810843;29;20052;-83
2022/04/22 00:07:48;;;;;;;107.88;55.58;;;;;;;8.71;100.00;99000.91;4835972;29;20059;-83
2022/04/22 00:10:14;;;;;;;111.68;57.97;;;;;;;8.32;100.00;98986.31;4825897;29;20038;-83
2022/04/22 00:12:40;;;;;;;104.10;55.55;;;;;;;8.55;100.00;98981.00;4811778;29;20527;-82
2022/04/22 00:15:06;;;;;;;110.88;58.97;;;;;;;8.56;100.00;98981.81;4822182;29;20030;-82
2022/04/22 00:17:32;;;;;;;104.85;56.42;;;;;;;8.28;100.00;98980.63;4836806;29;20097;-82
2022/04/22 00:19:57;;;;;;;110.90;57.35;;;;;;;8.38;100.00;98987.38;4810119;29;20069;-82
2022/04/22 00:22:23;;;;;;;111.53;58.00;;;;;;;7.80;100.00;98957.41;4824312;29;20481;-83
2022/04/22 00:24:49;;;;;;;112.55;57.47;;;;;;;8.38;100.00;98982.97;4832923;29;20033;-82
2022/04/22 00:27:15;;;;;;;105.57;56.47;;;;;;;8.52;100.00;98972.69;4832216;29;20034;-83
2022/04/22 00:29:44;;;;;;;107.13;57.85;;;;;;;8.69;100.00;98976.72;4824594;29;20033;-83
2022/04/22 00:32:10;;;;;;;100.05;55.35;;;;;;;8.36;100.00;98948.31;4831683;29;20121;-84
2022/04/22 00:34:36;;;;;;;96.78;52.10;;;;;;;8.71;100.00;98985.22;4831812;29;20121;-83
2022/04/22 00:37:02;;;;;;;95.18;53.20;;;;;;;8.26;100.00;98960.88;4826175;29;20046;-82
2022/04/22 00:39:27;;;;;;;94.70;52.45;;;;;;;8.66;100.00;98965.81;4824677;29;20029;-82
2022/04/22 00:41:53;;;;;;;94.03;52.88;;;;;;;8.65;100.00;98961.56;4810999;29;20042;-83
2022/04/22 00:44:19;;;;;;;91.43;51.97;;;;;;;8.75;100.00;98963.91;4810753;29;20041;-82
2022/04/22 00:46:45;;;;;;;88.70;51.28;;;;;;;8.64;100.00;98960.75;4836654;29;20094;-82
2022/04/22 00:49:10;;;;;;;89.53;52.38;;;;;;;8.71;100.00;98948.56;4811184;29;20030;-82
2022/04/22 00:51:37;;;;;;;90.95;50.80;;;;;;;8.96;100.00;98963.13;4802211;29;20125;-83
2022/04/22 00:54:04;;;;;;;93.78;47.97;;;;;;;8.40;100.00;98936.50;4819518;29;20027;-82
2022/04/22 00:56:30;;;;;;;91.18;50.22;;;;;;;8.64;100.00;98958.13;4809988;29;20136;-82
2022/04/22 00:58:57;;;;;;;94.28;51.55;;;;;;;8.33;100.00;98951.31;4833022;29;20477;-83
2022/04/22 01:01:24;;;;;;;89.97;50.58;;;;;;;8.36;100.00;98940.47;4826138;29;20046;-82
2022/04/22 01:12:06;;;;;;;90.57;50.42;;;;;;;8.50;100.00;98938.06;4834920;29;20122;-83
2022/04/22 01:14:33;;;;;;;92.35;50.45;;;;;;;8.25;100.00;98940.94;4808650;29;20034;-83
2022/04/22 01:17:00;;;;;;;90.38;49.33;;;;;;;8.63;100.00;98947.88;4826296;29;20513;-83
2022/04/22 01:19:27;;;;;;;89.45;49.55;;;;;;;8.68;100.00;98941.09;4822216;29;20390;-83
2022/04/22 01:21:53;;;;;;;81.05;46.45;;;;;;;8.66;100.00;98945.72;4821452;29;20481;-83
2022/04/22 01:24:19;;;;;;;83.90;46.80;;;;;;;8.40;100.00;98933.88;4810374;29;20194;-82
2022/04/22 01:26:46;;;;;;;85.18;47.85;;;;;;;8.79;100.00;98939.81;4825156;29;20095;-82
2022/04/22 01:29:14;;;;;;;90.07;48.65;;;;;;;8.43;100.00;98940.56;4825291;29;20026;-83
2022/04/22 01:31:39;;;;;;;83.10;45.95;;;;;;;8.39;100.00;98937.50;4825267;29;20030;-83
2022/04/22 01:34:05;;;;;;;86.90;46.08;;;;;;;8.62;100.00;98941.03;4825435;29;20045;-85
2022/04/22 01:36:30;;;;;;;79.40;47.70;;;;;;;8.36;100.00;98916.94;4834959;29;20041;-82
2022/04/22 01:38:57;;;;;;;78.63;44.88;;;;;;;8.46;100.00;98937.59;4824595;29;20045;-81
2022/04/22 01:41:22;;;;;;;87.05;48.53;;;;;;;8.02;100.00;98928.78;4821542;29;20073;-82
2022/04/22 01:43:49;;;;;;;84.68;45.00;;;;;;;8.35;100.00;98923.16;4826755;29;20042;-83
2022/04/22 01:46:15;;;;;;;77.22;44.42;;;;;;;8.01;100.00;98942.84;4807247;29;20091;-84
2022/04/22 01:48:41;;;;;;;85.40;48.53;;;;;;;7.86;100.00;98941.06;4835603;29;20109;-83
2022/04/22 01:51:07;;;;;;;79.45;45.72;;;;;;;7.72;100.00;98934.78;4809172;29;20125;-82
2022/04/22 01:53:32;;;;;;;83.43;47.80;;;;;;;7.87;100.00;98928.78;4825030;29;20039;-83
2022/04/22 01:55:59;;;;;;;77.30;46.13;;;;;;;7.89;100.00;98923.38;4825657;29;20038;-83
2022/04/22 01:58:24;;;;;;;82.40;44.42;;;;;;;7.97;100.00;98920.66;4835320;29;20097;-83
2022/04/22 02:00:50;;;;;;;78.55;43.97;;;;;;;7.99;100.00;98918.69;4825309;29;20045;-82
2022/04/22 02:03:15;;;;;;;82.75;41.30;;;;;;;7.88;100.00;98906.09;4826777;29;20042;-82
2022/04/22 02:05:41;;;;;;;68.28;39.33;;;;;;;7.79;100.00;98890.47;4825886;29;20030;-83
2022/04/22 02:08:08;;;;;;;74.75;42.75;;;;;;;7.76;100.00;98888.22;4834844;29;20084;-83
2022/04/22 02:10:33;;;;;;;68.63;39.72;;;;;;;7.91;100.00;98913.56;4837346;29;20041;-83
2022/04/22 02:12:59;;;;;;;72.88;41.70;;;;;;;8.12;100.00;98886.66;4838161;29;20033;-82
2022/04/22 02:15:26;;;;;;;69.68;38.95;;;;;;;8.08;100.00;98869.75;4825297;29;20121;-81
2022/04/22 02:17:53;;;;;;;67.18;39.50;;;;;;;7.77;100.00;98879.41;4807590;29;20049;-81
2022/04/22 02:20:19;;;;;;;73.53;39.53;;;;;;;8.09;100.00;98873.97;4827353;29;20026;-83
2022/04/22 02:22:44;;;;;;;68.72;38.05;;;;;;;8.08;100.00;98890.66;4831164;29;20401;-83
2022/04/22 02:25:10;;;;;;;61.92;36.60;;;;;;;8.39;100.00;98876.53;4863135;29;20044;-84
2022/04/22 02:30:20;;;;;;;61.38;35.88;;;;;;;8.37;100.00;98881.94;4847140;29;20029;-84
2022/04/22 02:32:46;;;;;;;63.53;36.17;;;;;;;8.24;100.00;98864.31;4863041;29;20499;-81
2022/04/22 02:35:13;;;;;;;67.80;37.45;;;;;;;8.15;100.00;98860.97;4847159;29;20167;-82
2022/04/22 02:37:39;;;;;;;67.25;36.80;;;;;;;7.97;100.00;98877.06;4846866;29;20033;-81
2022/04/22 02:40:07;;;;;;;59.35;34.97;;;;;;;7.82;100.00;98850.91;4847177;29;20112;-82
2022/04/22 02:45:28;;;;;;;57.50;34.85;;;;;;;8.15;100.00;98852.31;4821376;29;20041;-83
2022/04/22 02:47:56;;;;;;;56.95;34.65;;;;;;;8.03;100.00;98867.66;4847174;29;20030;-83
2022/04/22 02:50:23;;;;;;;63.38;34.58;;;;;;;8.18;100.00;98843.31;4846911;29;20040;-83
2022/04/22 02:52:49;;;;;;;59.63;33.35;;;;;;;8.04;100.00;98861.44;4860500;29;20037;-83
2022/04/22 02:55:14;;;;;;;52.13;30.92;;;;;;;8.32;100.00;98876.47;4846814;29;20033;-84
2022/04/22 02:57:44;;;;;;;50.17;29.85;;;;;;;8.61;100.00;98874.78;4846700;29;20040;-83
2022/04/22 03:00:14;;;;;;;47.40;28.30;;;;;;;8.30;100.00;98878.47;4829511;29;20041;-83
2022/04/22 03:02:41;;;;;;;41.88;26.52;;;;;;;8.57;100.00;98868.31;4846556;29;20033;-82
2022/04/22 03:05:09;;;;;;;44.15;27.80;;;;;;;8.53;100.00;98867.06;4846641;29;20097;-83
2022/04/22 03:07:35;;;;;;;44.55;26.70;;;;;;;8.70;100.00;98878.91;4831380;29;20428;-83
2022/04/22 03:10:00;;;;;;;43.15;25.35;;;;;;;8.08;100.00;98865.34;4846670;29;20048;-83
2022/04/22 03:12:27;;;;;;;46.78;25.83;;;;;;;8.54;100.00;98869.47;4861764;29;20030;-82
2022/04/22 03:14:53;;;;;;;45.30;25.42;;;;;;;8.32;100.00;98865.19;4858426;29;20092;-83
2022/04/22 03:17:19;;;;;;;45.22;25.42;;;;;;;8.51;100.00;98851.53;4841997;29;20064;-82
2022/04/22 03:19:45;;;;;;;41.58;22.75;;;;;;;8.24;100.00;98860.88;4846561;29;20495;-82
2022/04/22 03:22:11;;;;;;;37.80;21.95;;;;;;;8.06;100.00;98849.03;4829761;29;20158;-83
2022/04/22 03:24:37;;;;;;;40.08;22.63;;;;;;;8.20;100.00;98859.63;4830982;29;20053;-83
2022/04/22 03:27:03;;;;;;;35.92;22.17;;;;;;;7.95;100.00;98831.19;4846627;29;20048;-83
2022/04/22 03:29:28;;;;;;;38.72;20.55;;;;;;;8.38;100.00;98867.09;4863525;29;20033;-82
2022/04/22 03:31:54;;;;;;;37.75;22.42;;;;;;;8.36;100.00;98846.31;4831541;29;20046;-81
2022/04/22 03:34:20;;;;;;;38.05;21.17;;;;;;;8.70;100.00;98842.28;4846552;29;20116;-83
2022/04/22 03:36:46;;;;;;;42.65;23.40;;;;;;;8.17;100.00;98826.00;4831526;29;20047;-83
2022/04/22 03:39:12;;;;;;;42.17;23.92;;;;;;;8.06;100.00;98841.19;4847443;29;20049;-84
2022/04/22 03:41:39;;;;;;;38.30;23.60;;;;;;;8.42;100.00;98835.13;4845742;29;20030;-82
2022/04/22 03:44:05;;;;;;;40.05;24.60;;;;;;;8.55;100.00;98854.59;4862194;29;20098;-84
2022/04/22 03:46:31;;;;;;;39.60;22.50;;;;;;;8.01;100.00;98820.00;4846652;29;20037;-82
2022/04/22 03:49:00;;;;;;;39.67;22.63;;;;;;;8.19;100.00;98843.13;4844919;29;20117;-83
2022/04/22 03:51:27;;;;;;;45.10;23.58;;;;;;;8.33;100.00;98828.41;4846374;29;20037;-84
2022/04/22 03:53:53;;;;;;;39.40;22.85;;;;;;;8.43;100.00;98843.78;4857443;29;20033;-81
2022/04/22 03:59:05;;;;;;;43.65;22.67;;;;;;;8.28;100.00;98846.44;4844839;29;20139;-82
2022/04/22 04:01:32;;;;;;;39.78;22.70;;;;;;;8.02;100.00;98834.66;4845518;29;20105;-81
2022/04/22 04:03:58;;;;;;;37.95;22.08;;;;;;;8.19;100.00;98855.38;4845662;29;20038;-82
2022/04/22 04:06:25;;;;;;;37.70;22.77;;;;;;;8.26;100.00;98843.22;4845679;29;20388;-82
2022/04/22 04:17:08;;;;;;;40.35;23.42;;;;;;;8.18;100.00;98840.69;4847196;29;20033;-81
2022/04/22 04:25:03;;;;;;;39.25;24.88;;;;;;;8.15;100.00;98839.25;4835434;29;20094;-82
2022/04/22 04:27:29;;;;;;;36.05;23.77;;;;;;;8.18;100.00;98832.84;4830950;29;20037;-81
2022/04/22 04:29:55;;;;;;;38.20;24.67;;;;;;;7.99;100.00;98842.88;4815522;29;20049;-82
2022/04/22 04:32:21;;;;;;;43.83;24.50;;;;;;;8.18;100.00;98833.69;4831805;29;20140;-81
2022/04/22 04:34:47;;;;;;;45.90;24.27;;;;;;;8.33;100.00;98811.88;4803930;29;20505;-81
2022/04/22 04:37:16;;;;;;;43.92;25.33;;;;;;;8.37;100.00;98811.34;4814327;29;20139;-82
2022/04/22 04:39:41;;;;;;;39.95;25.13;;;;;;;8.23;100.00;98825.25;4816415;29;20034;-83
2022/04/22 04:42:09;;;;;;;48.08;25.48;;;;;;;8.41;100.00;98836.13;4831078;29;20037;-82
2022/04/22 04:44:37;;;;;;;44.72;25.55;;;;;;;8.34;100.00;98837.88;4831933;29;20026;-82
2022/04/22 04:47:03;;;;;;;47.00;25.63;;;;;;;8.38;100.00;98830.47;4816046;29;20042;-82
2022/04/22 04:49:29;;;;;;;51.17;27.27;;;;;;;8.14;100.00;98846.28;4814046;29;20042;-83
2022/04/22 04:51:55;;;;;;;47.78;26.27;;;;;;;8.27;100.00;98831.75;4833071;29;20051;-80
2022/04/22 04:54:20;;;;;;;49.60;26.30;;;;;;;8.44;100.00;98817.44;4813007;29;20389;-80
2022/04/22 04:56:46;;;;;;;45.38;26.60;;;;;;;8.21;100.00;98825.47;4797198;29;20046;-80
2022/04/22 04:59:12;;;;;;;52.30;28.73;;;;;;;8.00;100.00;98781.78;4821281;29;20036;-80
2022/04/22 05:01:38;;;;;;;53.80;28.73;;;;;;;8.07;100.00;98806.19;4829009;29;20062;-80
2022/04/22 05:04:04;;;;;;;47.92;29.23;;;;;;;8.28;100.00;98810.63;4832780;29;20034;-80
2022/04/22 05:06:30;;;;;;;53.97;28.52;;;;;;;8.48;100.00;98824.94;4796687;29;20496;-80
2022/04/22 05:08:57;;;;;;;56.72;31.08;;;;;;;8.14;100.00;98774.88;4816139;29;20064;-80
2022/04/22 05:11:22;;;;;;;55.10;30.25;;;;;;;8.34;100.00;98829.19;4795711;29;20031;-80
2022/04/22 05:13:48;;;;;;;58.38;32.70;;;;;;;8.12;100.00;98810.84;4818110;29;20038;-80
2022/04/22 05:16:14;;;;;;;59.33;35.42;;;;;;;8.27;100.00;98834.38;4815781;29;20038;-80
2022/04/22 05:18:40;;;;;;;54.97;33.33;;;;;;;8.17;100.00;98815.53;4834684;29;20068;-80
2022/04/22 05:21:06;;;;;;;63.13;35.38;;;;;;;8.18;100.00;98814.53;4833194;29;20065;-80
2022/04/22 05:23:32;;;;;;;59.67;34.25;;;;;;;8.34;100.00;98805.66;4791401;29;172428;-80
2022/04/22 05:26:01;;;;;;;64.55;34.42;;;;;;;8.83;100.00;98831.13;4827445;29;20435;-80
2022/04/22 05:28:28;;;;;;;57.53;33.38;;;;;;;8.92;100.00;98825.75;4822467;29;20041;-81
2022/04/22 05:33:38;;;;;;;62.05;33.67;;;;;;;8.47;100.00;98831.16;4824642;29;20064;-81
2022/04/22 05:36:06;;;;;;;60.70;34.72;;;;;;;8.61;100.00;98829.50;4832366;29;20043;-81
2022/04/22 05:38:31;;;;;;;65.85;34.50;;;;;;;8.77;100.00;98839.72;4831880;29;20037;-81
2022/04/22 05:40:57;;;;;;;63.67;36.05;;;;;;;8.76;100.00;98822.41;4822172;29;20034;-81
2022/04/22 05:43:24;;;;;;;59.42;33.95;;;;;;;8.74;100.00;98818.34;4809296;29;20045;-81
2022/04/22 05:45:50;;;;;;;65.38;33.85;;;;;;;8.91;100.00;98829.34;4832652;29;20520;-82
2022/04/22 05:48:16;;;;;;;63.95;35.85;;;;;;;8.91;100.00;98829.34;4825385;29;20038;-80
2022/04/22 05:50:42;;;;;;;65.53;35.20;;;;;;;8.80;100.00;98809.75;4812010;29;20190;-79
2022/04/22 05:53:08;;;;;;;59.20;33.20;;;;;;;8.91;100.00;98824.94;4808901;29;20050;-79
2022/04/22 05:55:33;;;;;;;60.03;33.30;;;;;;;8.79;100.00;98813.34;4824712;29;20035;-79
2022/04/22 05:58:00;;;;;;;61.90;34.17;;;;;;;8.71;100.00;98825.59;4809434;29;20042;-80
2022/04/22 06:00:30;;;;;;;49.35;29.50;;;;;;;8.95;100.00;98836.66;4826233;29;20037;-80
2022/04/22 06:02:56;;;;;;;59.70;29.00;;;;;;;8.78;100.00;98827.44;4810988;29;20045;-79
2022/04/22 06:05:22;;;;;;;53.35;29.35;;;;;;;9.05;100.00;98828.47;4809440;29;20041;-77
2022/04/22 06:10:31;;;;;;;50.97;28.17;;;;;;;8.82;100.00;98828.69;4821290;29;20034;-80
2022/04/22 06:10:35;;;;;;;55.47;28.40;;;;;;;8.63;100.00;98846.63;4833494;29;20038;-80
2022/04/22 06:13:01;;;;;;;54.45;27.73;;;;;;;9.04;100.00;98832.09;4822440;29;20121;-80
2022/04/22 06:15:27;;;;;;;54.00;26.80;;;;;;;8.98;100.00;98817.94;4807536;29;20034;-81
2022/04/22 06:17:53;;;;;;;55.17;28.80;;;;;;;9.03;100.00;98814.75;4810589;29;20495;-82
2022/04/22 06:20:19;;;;;;;54.97;30.70;;;;;;;8.82;100.00;98812.97;4827646;29;20034;-81
2022/04/22 06:22:45;;;;;;;52.00;27.58;;;;;;;8.96;100.00;98830.41;4811234;29;20508;-81
2022/04/22 06:25:11;;;;;;;52.40;29.30;;;;;;;9.06;100.00;98819.63;4812635;29;20063;-81
2022/04/22 06:27:39;;;;;;;53.72;29.15;;;;;;;9.30;100.00;98817.56;4822844;29;20489;-82
2022/04/22 06:30:11;;;;;;;45.15;27.60;;;;;;;9.43;100.00;98824.69;4825241;29;20030;-81
2022/04/22 06:32:38;;;;;;;51.38;26.30;;;;;;;8.97;100.00;98821.56;4823990;29;20026;-81
2022/04/22 06:35:05;;;;;;;44.13;25.92;;;;;;;9.22;100.00;98818.50;4812108;29;20038;-81
2022/04/22 06:37:51;;;;;;;57.63;28.45;;;;;;;8.99;100.00;98809.09;4836756;29;20428;-81
2022/04/22 06:45:49;;;;;;;54.47;25.17;;;;;;;9.74;100.00;98799.88;4832752;29;20122;-81
2022/04/22 06:48:29;;;;;;;51.15;25.65;;;;;;;9.45;100.00;98817.47;4825274;29;20045;-81
2022/04/22 06:50:56;;;;;;;39.20;23.80;;;;;;;9.49;100.00;98807.41;4809581;29;20050;-80
2022/04/22 06:53:23;;;;;;;44.25;23.13;;;;;;;9.76;100.00;98821.44;4825978;29;20030;-81
2022/04/22 06:55:50;;;;;;;38.05;23.20;;;;;;;9.71;100.00;98811.53;4808400;29;20548;-79
2022/04/22 06:58:17;;;;;;;43.20;24.92;;;;;;;10.17;100.00;98795.38;4825254;29;20527;-79
2022/04/22 07:00:45;;;;;;;47.72;23.83;;;;;;;9.39;100.00;98778.94;4808273;29;20110;-80
2022/04/22 07:03:13;;;;;;;47.20;22.08;;;;;;;9.82;100.00;98778.72;4823682;29;20381;-80
2022/04/22 07:05:40;;;;;;;45.08;21.48;;;;;;;10.11;100.00;98821.41;4830823;29;20363;-80
2022/04/22 07:08:11;;;;;;;41.00;21.75;;;;;;;9.63;100.00;98830.06;4825642;29;20041;-80
2022/04/22 07:10:38;;;;;;;42.20;20.83;;;;;;;9.52;100.00;98799.97;4807863;29;20099;-81
2022/04/22 07:13:04;;;;;;;44.38;22.25;;;;;;;9.65;100.00;98822.03;4810144;29;20035;-82
2022/04/22 07:15:30;;;;;;;48.13;24.70;;;;;;;9.89;100.00;98806.81;4810142;29;20034;-84
2022/04/22 07:17:56;;;;;;;44.78;22.83;;;;;;;9.86;100.00;98818.47;4828439;29;20034;-80
2022/04/22 07:20:23;;;;;;;39.55;21.80;;;;;;;9.53;100.00;98788.50;4812280;29;20375;-82
2022/04/22 07:22:49;;;;;;;43.53;22.77;;;;;;;9.74;100.00;98799.88;4821560;29;20498;-79
2022/04/22 07:25:16;;;;;;;41.47;22.17;;;;;;;9.97;100.00;98815.31;4822600;29;20058;-81
2022/04/22 07:27:46;;;;;;;45.33;23.23;;;;;;;9.80;100.00;98812.19;4823956;29;20493;-83
2022/04/22 07:30:16;;;;;;;46.30;22.45;;;;;;;9.99;100.00;98773.13;4810737;29;20057;-82
2022/04/22 07:32:45;;;;;;;45.80;24.13;;;;;;;10.37;100.00;98804.09;4835368;29;20034;-81
2022/04/22 07:35:12;;;;;;;37.35;20.98;;;;;;;10.41;100.00;98815.84;4809390;29;20034;-81
2022/04/22 07:37:41;;;;;;;43.58;22.23;;;;;;;11.16;100.00;98800.94;4809348;29;20037;-84
2022/04/22 07:40:08;;;;;;;37.05;20.65;;;;;;;10.42;100.00;98807.00;4831701;29;20473;-83
2022/04/22 07:42:35;;;;;;;35.03;22.00;;;;;;;10.61;100.00;98801.16;4823859;29;20026;-84
2022/04/22 07:47:50;;;;;;;44.75;22.05;;;;;;;10.43;100.00;98798.13;4827126;29;20066;-84
2022/04/22 07:50:18;;;;;;;35.78;20.98;;;;;;;10.56;100.00;98778.94;4836112;29;20076;-84
2022/04/22 07:52:45;;;;;;;41.50;20.50;;;;;;;10.43;100.00;98797.28;4827926;29;20061;-82
2022/04/22 07:55:13;;;;;;;47.53;22.05;;;;;;;10.57;100.00;98804.19;4827403;29;20034;-84
2022/04/22 07:57:42;;;;;;;39.33;20.73;;;;;;;10.79;100.00;98800.53;4824834;29;20069;-83
2022/04/22 08:00:14;;;;;;;39.58;22.05;;;;;;;10.71;100.00;98797.13;4821579;29;20033;-84
2022/04/22 08:02:42;;;;;;;38.78;21.08;;;;;;;10.56;100.00;98801.75;4807551;29;20463;-84
2022/04/22 08:05:13;;;;;;;41.53;21.23;;;;;;;10.42;100.00;98816.66;4809014;29;20038;-83
2022/04/22 08:07:39;;;;;;;36.28;21.67;;;;;;;10.53;100.00;98796.91;4836094;29;20052;-84
2022/04/22 08:10:06;;;;;;;38.78;20.77;;;;;;;11.47;100.00;98807.38;4837097;29;20029;-84
2022/04/22 08:12:33;;;;;;;36.50;19.38;;;;;;;11.48;100.00;98774.81;4827021;29;20037;-84
2022/04/22 08:14:59;;;;;;;32.17;18.58;;;;;;;11.08;100.00;98796.69;4827101;29;20034;-83
2022/04/22 08:17:25;;;;;;;35.50;18.17;;;;;;;11.38;100.00;98800.69;4824911;29;20505;-83
2022/04/22 08:19:51;;;;;;;31.58;16.77;;;;;;;11.83;100.00;98792.91;4807625;29;20049;-86
2022/04/22 08:22:18;;;;;;;32.40;16.70;;;;;;;12.56;100.00;98787.44;4838514;29;20026;-84
2022/04/22 08:24:43;;;;;;;54.00;19.58;;;;;;;11.99;100.00;98788.19;4826818;29;20038;-84
2022/04/22 08:27:10;;;;;;;37.80;17.42;;;;;;;12.09;100.00;98778.03;4831296;29;20029;-81
2022/04/22 08:29:37;;;;;;;31.63;16.58;;;;;;;11.96;100.00;98784.13;4826114;29;20421;-82
2022/04/22 08:32:04;;;;;;;29.88;16.05;;;;;;;12.06;100.00;98778.44;4827391;29;20397;-83
2022/04/22 08:34:30;;;;;;;35.95;17.60;;;;;;;11.60;100.00;98774.97;4825428;29;20541;-82
2022/04/22 08:36:58;;;;;;;31.25;15.13;;;;;;;12.28;100.00;98786.84;4822746;29;20030;-83
2022/04/22 08:39:24;;;;;;;30.77;16.15;;;;;;;12.06;100.00;98767.94;4822427;29;20045;-83
2022/04/22 08:41:51;;;;;;;29.25;15.52;;;;;;;11.84;100.00;98765.59;4825604;29;20078;-82
2022/04/22 08:44:21;;;;;;;28.98;16.77;;;;;;;12.18;100.00;98801.44;4825507;29;20045;-82
2022/04/22 08:52:17;;;;;;;27.90;14.00;;;;;;;13.52;100.00;98773.25;4836054;29;20034;-84
2022/04/22 08:54:45;;;;;;;29.65;14.98;;;;;;;13.04;100.00;98778.16;4804307;29;20038;-83
2022/04/22 08:57:12;;;;;;;25.42;13.50;;;;;;;12.94;100.00;98778.63;4807620;29;20381;-83
2022/04/22 08:59:38;;;;;;;29.33;14.00;;;;;;;13.46;100.00;98784.66;4822737;29;20045;-84
2022/04/22 09:02:03;;;;;;;25.90;14.65;;;;;;;13.77;100.00;98764.44;4823049;29;20416;-83
2022/04/22 09:04:29;;;;;;;30.38;13.43;;;;;;;12.97;100.00;98766.88;4838404;29;20091;-84
2022/04/22 09:06:56;;;;;;;24.50;13.90;;;;;;;13.31;100.00;98764.72;4824255;29;20409;-82
2022/04/22 09:09:24;;;;;;;33.67;14.80;;;;;;;13.11;100.00;98757.00;4808921;29;20575;-81
2022/04/22 09:11:51;;;;;;;25.63;13.05;;;;;;;13.25;100.00;98760.31;4825010;29;20044;-82
2022/04/22 09:14:20;;;;;;;27.05;13.27;;;;;;;13.81;100.00;98745.31;4820999;29;20118;-82
2022/04/22 09:16:47;;;;;;;26.10;12.70;;;;;;;13.75;100.00;98756.72;4832424;29;20715;-82
2022/04/22 09:19:13;;;;;;;27.48;12.32;;;;;;;14.04;100.00;98758.78;4832622;29;20482;-82
2022/04/22 09:21:39;;;;;;;26.85;12.43;;;;;;;13.67;100.00;98742.03;4830567;29;20091;-82
2022/04/22 09:24:13;;;;;;;23.48;11.93;;;;;;;13.99;100.00;98752.34;4827168;29;20217;-82
2022/04/22 09:26:40;;;;;;;27.70;12.38;;;;;;;13.87;100.00;98759.44;4824107;29;20393;-81
2022/04/22 09:29:06;;;;;;;28.65;12.77;;;;;;;13.87;100.00;98732.25;4827978;29;20038;-82
2022/04/22 09:31:49;;;;;;;33.25;11.82;;;;;;;14.10;100.00;98748.16;4813634;29;20154;-82
2022/04/22 09:34:15;;;;;;;24.80;12.43;;;;;;;13.94;100.00;98743.50;4833888;29;21436;-81
2022/04/22 09:42:46;;;;;;;28.40;13.18;;;;;;;14.18;100.00;98739.13;4785441;29;20589;-80
2022/04/22 09:45:13;;;;;;;27.17;13.43;;;;;;;14.54;100.00;98747.09;4823860;29;20401;-82
2022/04/22 09:47:40;;;;;;;24.15;12.65;;;;;;;14.42;100.00;98734.69;4825259;29;20070;-81
2022/04/22 09:50:14;;;;;;;25.23;13.93;;;;;;;13.89;100.00;98744.19;4835364;29;20041;-82
2022/04/22 09:52:46;;;;;;;34.10;13.95;;;;;;;14.49;100.00;98731.13;4808330;29;20172;-83
2022/04/22 09:55:16;;;;;;;25.83;14.02;;;;;;;14.51;100.00;98731.72;4826235;29;20029;-83
2022/04/22 09:57:59;;;;;;;24.20;13.45;;;;;;;14.16;100.00;98740.38;4821932;29;20038;-82
2022/04/22 10:00:30;;;;;;;25.92;11.95;;;;;;;14.37;100.00;98724.03;4824726;29;20033;-83
2022/04/22 10:02:57;;;;;;;26.17;11.70;;;;;;;14.11;100.00;98717.31;4826447;29;20032;-82
2022/04/22 10:05:28;;;;;;;24.80;11.65;;;;;;;14.50;100.00;98716.91;4837192;29;20038;-82
2022/04/22 10:07:56;;;;;;;27.42;12.27;;;;;;;14.47;100.00;98717.38;4828092;29;20481;-82
2022/04/22 10:10:30;;;;;;;26.45;11.90;;;;;;;14.13;100.00;98715.25;4835266;29;20393;-82
2022/04/22 10:12:59;;;;;;;21.02;10.43;;;;;;;14.28;100.00;98717.44;4826157;29;20542;-82
2022/04/22 10:15:29;;;;;;;22.50;9.25;;;;;;;14.58;100.00;98713.94;4825675;29;20057;-81
2022/04/22 10:17:56;;;;;;;23.30;9.35;;;;;;;14.50;100.00;98709.78;4811337;29;20354;-83
2022/04/22 10:20:24;;;;;;;26.48;9.40;;;;;;;15.04;100.00;98708.09;4836872;29;20034;-82
2022/04/22 10:22:50;;;;;;;21.08;9.82;;;;;;;15.63;100.00;98705.31;4809671;29;20417;-83
2022/04/22 10:25:16;;;;;;;26.67;8.57;;;;;;;16.19;99.81;98707.34;4826726;29;20030;-83
2022/04/22 10:27:43;;;;;;;13.93;7.45;;;;;;;16.34;99.29;98703.34;4840206;29;20586;-82
2022/04/22 10:30:10;;;;;;;16.10;6.60;;;;;;;15.39;95.17;98704.59;4811811;29;20018;-81
2022/04/22 10:32:40;;;;;;;27.20;8.70;;;;;;;16.11;92.37;98695.34;4825913;29;20494;-82
2022/04/22 10:35:07;;;;;;;12.48;8.32;;;;;;;15.96;88.14;98713.59;4810552;29;20046;-81
2022/04/22 10:37:37;;;;;;;11.25;6.60;;;;;;;15.89;86.95;98710.28;4825524;29;20502;-81
2022/04/22 10:40:04;;;;;;;10.82;6.50;;;;;;;16.22;83.12;98706.09;4811456;29;20545;-82
2022/04/22 10:42:38;;;;;;;15.82;6.30;;;;;;;16.50;83.92;98697.25;4826499;29;20034;-81
2022/04/22 10:47:50;;;;;;;12.05;6.80;;;;;;;16.47;80.65;98689.81;4837624;29;20486;-81
2022/04/22 10:50:34;;;;;;;15.43;7.05;;;;;;;16.59;80.03;98684.41;4830042;29;20038;-82
2022/04/22 10:53:03;;;;;;;19.50;7.07;;;;;;;16.83;79.38;98690.31;4833779;29;20055;-82
2022/04/22 10:55:39;;;;;;;10.65;6.13;;;;;;;16.84;77.24;98664.59;4825025;29;20062;-82
2022/04/22 10:58:20;;;;;;;8.85;6.50;;;;;;;17.12;77.60;98676.94;4822258;29;20435;-82
2022/04/22 11:00:51;;;;;;;14.73;6.60;;;;;;;16.26;77.93;98675.44;4834831;29;20034;-82
2022/04/22 11:03:21;;;;;;;10.05;6.82;;;;;;;16.20;79.71;98682.47;4835146;29;20025;-81
2022/04/22 11:06:06;;;;;;;14.18;6.95;;;;;;;16.31;80.58;98678.19;4839273;29;20187;-82
2022/04/22 11:08:38;;;;;;;13.23;7.28;;;;;;;16.81;80.52;98673.88;4833170;29;20058;-82
2022/04/22 11:11:24;;;;;;;14.73;6.63;;;;;;;16.73;77.93;98679.56;4810523;29;20361;-81
2022/04/22 11:13:51;;;;;;;15.57;6.63;;;;;;;16.55;78.72;98678.00;4826139;29;20482;-82
2022/04/22 11:16:20;;;;;;;9.57;6.32;;;;;;;16.18;78.39;98686.44;4840763;29;20040;-82
2022/04/22 11:19:14;;;;;;;9.98;6.78;;;;;;;16.45;77.34;98699.84;4821848;29;20042;-82
2022/04/22 11:21:45;;;;;;;19.65;5.82;;;;;;;16.68;76.13;98677.63;4832886;29;20042;-84
2022/04/22 11:24:16;;;;;;;14.43;5.70;;;;;;;16.80;75.99;98643.09;4848455;29;20454;-84
2022/04/22 11:26:44;;;;;;;12.75;5.60;;;;;;;16.94;73.87;98617.03;4813939;29;20040;-84
2022/04/22 11:29:10;;;;;;;12.10;5.70;;;;;;;17.34;74.87;98667.38;4817598;29;20034;-83
2022/04/22 11:31:37;;;;;;;10.70;5.43;;;;;;;16.62;73.35;98628.28;4826510;29;20043;-84
2022/04/22 11:34:11;;;;;;;12.50;5.82;;;;;;;16.68;73.04;98622.00;4814294;29;20054;-84
2022/04/22 11:36:44;;;;;;;8.90;5.68;;;;;;;16.83;73.45;98616.09;4822733;29;20034;-86
2022/04/22 11:39:15;;;;;;;11.40;5.80;;;;;;;17.36;72.43;98657.31;4833268;29;20045;-83
2022/04/22 11:42:01;;;;;;;12.40;6.03;;;;;;;17.39;71.27;98660.28;4828096;29;20030;-84
2022/04/22 11:44:27;;;;;;;12.18;5.95;;;;;;;16.91;71.48;98664.44;4838957;29;20080;-84
2022/04/22 11:46:54;;;;;;;11.32;5.63;;;;;;;17.02;71.40;98630.94;4836590;29;20477;-84
2022/04/22 11:49:21;;;;;;;6.30;5.15;;;;;;;17.72;70.89;98673.59;4825509;29;20041;-83
2022/04/22 11:51:54;;;;;;;7.43;5.22;;;;;;;17.62;70.89;98641.66;4827975;29;20030;-83
2022/04/22 11:54:27;;;;;;;9.52;5.45;;;;;;;17.50;69.88;98645.25;4828396;29;20080;-83
2022/04/22 11:56:53;;;;;;;11.25;5.57;;;;;;;17.08;71.41;98654.59;4826234;29;20090;-82
2022/04/22 11:59:22;;;;;;;8.10;5.80;;;;;;;17.28;71.65;98664.63;4832689;29;20058;-84
2022/04/22 12:05:33;;;;;;;7.32;5.00;;;;;;;17.25;70.65;98659.06;4841983;29;20034;-84
2022/04/22 12:10:12;;;;;;;7.68;5.00;;;;;;;17.26;68.86;98648.16;4845840;29;20033;-84
2022/04/22 12:12:48;;;;;;;11.60;5.00;;;;;;;16.81;68.78;98644.72;4817594;29;20043;-84
2022/04/22 12:15:21;;;;;;;12.27;5.07;;;;;;;16.76;69.41;98633.22;4834231;29;20045;-83
2022/04/22 12:17:47;;;;;;;7.20;5.15;;;;;;;16.64;70.29;98649.25;4833902;29;20046;-84
2022/04/22 12:20:14;;;;;;;13.80;4.97;;;;;;;17.62;69.05;98676.97;4817926;29;20121;-85